sensor_id;sensor_type;location;lat;lon;timestamp;P1;durP1;ratioP1;P2;durP2;ratioP2
26858;SDS011;14429;48.346;16.338;2023-09-12T00:01:20;4.93;;;3.05;;
26858;SDS011;14429;48.346;16.338;2023-09-12T00:03:45;5.72;;;2.72;;
26858;SDS011;14429;48.346;16.338;2023-09-12T00:06:10;3.25;;;2.58;;
26858;SDS011;14429;48.346;16.338;2023-09-12T00:08:36;5.25;;;2.83;;
26858;SDS011;14429;48.346;16.338;2023-09-12T00:11:02;4.22;;;2.72;;
26858;SDS011;14429;48.346;16.338;2023-09-12T00:13:29;3.25;;;2.60;;
26858;SDS011;14429;48.346;16.338;2023-09-12T00:15:56;3.40;;;2.75;;
26858;SDS011;14429;48.346;16.338;2023-09-12T00:18:22;3.85;;;2.90;;
26858;SDS011;14429;48.346;16.338;2023-09-12T00:20:47;3.92;;;2.70;;
26858;SDS011;14429;48.346;16.338;2023-09-12T00:23:12;5.95;;;2.70;;
26858;SDS011;14429;48.346;16.338;2023-09-12T00:25:38;3.78;;;2.55;;
26858;SDS011;14429;48.346;16.338;2023-09-12T00:28:03;5.13;;;2.85;;
26858;SDS011;14429;48.346;16.338;2023-09-12T00:30:30;3.22;;;2.30;;
26858;SDS011;14429;48.346;16.338;2023-09-12T00:32:56;3.42;;;2.85;;
26858;SDS011;14429;48.346;16.338;2023-09-12T00:35:21;3.72;;;2.90;;
26858;SDS011;14429;48.346;16.338;2023-09-12T00:37:46;4.57;;;2.78;;
26858;SDS011;14429;48.346;16.338;2023-09-12T00:40:12;3.88;;;2.92;;
26858;SDS011;14429;48.346;16.338;2023-09-12T00:42:37;4.20;;;2.95;;
26858;SDS011;14429;48.346;16.338;2023-09-12T00:45:03;3.45;;;2.30;;
26858;SDS011;14429;48.346;16.338;2023-09-12T00:47:30;3.67;;;3.00;;
26858;SDS011;14429;48.346;16.338;2023-09-12T00:49:56;3.35;;;2.63;;
26858;SDS011;14429;48.346;16.338;2023-09-12T00:52:22;3.50;;;2.67;;
26858;SDS011;14429;48.346;16.338;2023-09-12T00:54:49;2.38;;;2.00;;
26858;SDS011;14429;48.346;16.338;2023-09-12T00:57:15;4.10;;;2.88;;
26858;SDS011;14429;48.346;16.338;2023-09-12T00:59:41;3.78;;;2.85;;
26858;SDS011;14429;48.346;16.338;2023-09-12T01:02:06;3.67;;;2.70;;
26858;SDS011;14429;48.346;16.338;2023-09-12T01:04:33;3.63;;;2.78;;
26858;SDS011;14429;48.346;16.338;2023-09-12T01:07:00;3.30;;;2.50;;
26858;SDS011;14429;48.346;16.338;2023-09-12T01:09:25;4.72;;;3.20;;
26858;SDS011;14429;48.346;16.338;2023-09-12T01:11:51;5.25;;;2.90;;
26858;SDS011;14429;48.346;16.338;2023-09-12T01:14:16;4.25;;;2.75;;
26858;SDS011;14429;48.346;16.338;2023-09-12T01:16:42;4.38;;;2.97;;
26858;SDS011;14429;48.346;16.338;2023-09-12T01:19:07;3.65;;;2.95;;
26858;SDS011;14429;48.346;16.338;2023-09-12T01:21:46;3.50;;;2.95;;
26858;SDS011;14429;48.346;16.338;2023-09-12T01:24:43;4.53;;;2.90;;
26858;SDS011;14429;48.346;16.338;2023-09-12T01:27:27;4.75;;;3.00;;
26858;SDS011;14429;48.346;16.338;2023-09-12T01:29:56;4.15;;;2.65;;
26858;SDS011;14429;48.346;16.338;2023-09-12T01:32:22;4.72;;;3.00;;
26858;SDS011;14429;48.346;16.338;2023-09-12T01:34:48;3.97;;;2.97;;
26858;SDS011;14429;48.346;16.338;2023-09-12T01:37:13;3.30;;;2.40;;
26858;SDS011;14429;48.346;16.338;2023-09-12T01:39:39;7.20;;;2.85;;
26858;SDS011;14429;48.346;16.338;2023-09-12T01:42:04;3.15;;;2.30;;
26858;SDS011;14429;48.346;16.338;2023-09-12T01:44:32;4.50;;;2.90;;
26858;SDS011;14429;48.346;16.338;2023-09-12T01:47:00;4.90;;;2.85;;
26858;SDS011;14429;48.346;16.338;2023-09-12T01:49:29;4.45;;;2.67;;
26858;SDS011;14429;48.346;16.338;2023-09-12T01:51:57;3.95;;;2.88;;
26858;SDS011;14429;48.346;16.338;2023-09-12T01:54:23;3.58;;;2.50;;
26858;SDS011;14429;48.346;16.338;2023-09-12T01:56:49;4.38;;;2.78;;
26858;SDS011;14429;48.346;16.338;2023-09-12T01:59:15;4.32;;;2.80;;
26858;SDS011;14429;48.346;16.338;2023-09-12T02:01:42;2.72;;;2.30;;
26858;SDS011;14429;48.346;16.338;2023-09-12T02:04:07;3.25;;;2.47;;
26858;SDS011;14429;48.346;16.338;2023-09-12T02:06:33;3.72;;;2.97;;
26858;SDS011;14429;48.346;16.338;2023-09-12T02:08:58;3.17;;;2.60;;
26858;SDS011;14429;48.346;16.338;2023-09-12T02:11:24;5.57;;;2.47;;
26858;SDS011;14429;48.346;16.338;2023-09-12T02:13:51;3.00;;;2.50;;
26858;SDS011;14429;48.346;16.338;2023-09-12T02:16:16;3.70;;;2.75;;
26858;SDS011;14429;48.346;16.338;2023-09-12T02:18:43;3.30;;;2.83;;
26858;SDS011;14429;48.346;16.338;2023-09-12T02:21:08;2.92;;;2.42;;
26858;SDS011;14429;48.346;16.338;2023-09-12T02:23:34;4.18;;;3.00;;
26858;SDS011;14429;48.346;16.338;2023-09-12T02:25:59;3.58;;;3.25;;
26858;SDS011;14429;48.346;16.338;2023-09-12T02:28:25;3.92;;;2.90;;
26858;SDS011;14429;48.346;16.338;2023-09-12T02:30:50;3.15;;;2.67;;
26858;SDS011;14429;48.346;16.338;2023-09-12T02:33:15;4.20;;;2.90;;
26858;SDS011;14429;48.346;16.338;2023-09-12T02:35:42;4.55;;;3.05;;
26858;SDS011;14429;48.346;16.338;2023-09-12T02:38:08;4.03;;;2.90;;
26858;SDS011;14429;48.346;16.338;2023-09-12T02:40:34;3.63;;;2.72;;
26858;SDS011;14429;48.346;16.338;2023-09-12T02:42:59;3.40;;;2.65;;
26858;SDS011;14429;48.346;16.338;2023-09-12T02:45:24;4.60;;;2.85;;
26858;SDS011;14429;48.346;16.338;2023-09-12T02:47:50;3.30;;;2.38;;
26858;SDS011;14429;48.346;16.338;2023-09-12T02:50:15;4.53;;;2.78;;
26858;SDS011;14429;48.346;16.338;2023-09-12T02:52:42;3.33;;;2.63;;
26858;SDS011;14429;48.346;16.338;2023-09-12T02:55:08;3.97;;;2.92;;
26858;SDS011;14429;48.346;16.338;2023-09-12T02:57:33;3.78;;;2.88;;
26858;SDS011;14429;48.346;16.338;2023-09-12T02:59:58;3.65;;;2.65;;
26858;SDS011;14429;48.346;16.338;2023-09-12T03:02:24;4.40;;;2.80;;
26858;SDS011;14429;48.346;16.338;2023-09-12T03:04:49;4.00;;;2.90;;
26858;SDS011;14429;48.346;16.338;2023-09-12T03:07:15;3.75;;;2.90;;
26858;SDS011;14429;48.346;16.338;2023-09-12T03:09:41;4.35;;;3.05;;
26858;SDS011;14429;48.346;16.338;2023-09-12T03:12:07;4.45;;;2.78;;
26858;SDS011;14429;48.346;16.338;2023-09-12T03:14:32;4.68;;;3.17;;
26858;SDS011;14429;48.346;16.338;2023-09-12T03:16:58;3.97;;;3.10;;
26858;SDS011;14429;48.346;16.338;2023-09-12T03:19:23;4.13;;;3.05;;
26858;SDS011;14429;48.346;16.338;2023-09-12T03:21:48;4.57;;;2.95;;
26858;SDS011;14429;48.346;16.338;2023-09-12T03:24:14;3.13;;;2.40;;
26858;SDS011;14429;48.346;16.338;2023-09-12T03:26:41;4.97;;;3.10;;
26858;SDS011;14429;48.346;16.338;2023-09-12T03:29:06;4.15;;;2.90;;
26858;SDS011;14429;48.346;16.338;2023-09-12T03:31:31;4.97;;;3.13;;
26858;SDS011;14429;48.346;16.338;2023-09-12T03:33:57;4.47;;;3.05;;
26858;SDS011;14429;48.346;16.338;2023-09-12T03:36:22;6.32;;;2.70;;
26858;SDS011;14429;48.346;16.338;2023-09-12T03:38:48;4.47;;;2.80;;
26858;SDS011;14429;48.346;16.338;2023-09-12T03:41:13;3.90;;;2.85;;
26858;SDS011;14429;48.346;16.338;2023-09-12T03:43:40;3.17;;;2.78;;
26858;SDS011;14429;48.346;16.338;2023-09-12T03:46:05;3.85;;;2.80;;
26858;SDS011;14429;48.346;16.338;2023-09-12T03:48:31;2.60;;;2.30;;
26858;SDS011;14429;48.346;16.338;2023-09-12T03:50:56;5.03;;;2.92;;
26858;SDS011;14429;48.346;16.338;2023-09-12T03:53:21;4.13;;;2.90;;
26858;SDS011;14429;48.346;16.338;2023-09-12T03:55:47;5.03;;;3.03;;
26858;SDS011;14429;48.346;16.338;2023-09-12T03:58:12;4.28;;;2.85;;
26858;SDS011;14429;48.346;16.338;2023-09-12T04:00:39;3.35;;;2.95;;
26858;SDS011;14429;48.346;16.338;2023-09-12T04:03:04;3.25;;;2.72;;
26858;SDS011;14429;48.346;16.338;2023-09-12T04:05:30;3.33;;;2.53;;
26858;SDS011;14429;48.346;16.338;2023-09-12T04:07:55;3.60;;;2.92;;
26858;SDS011;14429;48.346;16.338;2023-09-12T04:10:21;3.05;;;2.60;;
26858;SDS011;14429;48.346;16.338;2023-09-12T04:12:46;4.28;;;3.20;;
26858;SDS011;14429;48.346;16.338;2023-09-12T04:15:12;3.78;;;2.63;;
26858;SDS011;14429;48.346;16.338;2023-09-12T04:17:38;3.80;;;2.75;;
26858;SDS011;14429;48.346;16.338;2023-09-12T04:20:04;4.30;;;3.10;;
26858;SDS011;14429;48.346;16.338;2023-09-12T04:22:31;3.50;;;2.78;;
26858;SDS011;14429;48.346;16.338;2023-09-12T04:24:56;5.22;;;2.90;;
26858;SDS011;14429;48.346;16.338;2023-09-12T04:27:22;3.75;;;3.17;;
26858;SDS011;14429;48.346;16.338;2023-09-12T04:29:47;3.47;;;3.00;;
26858;SDS011;14429;48.346;16.338;2023-09-12T04:32:12;3.65;;;2.95;;
26858;SDS011;14429;48.346;16.338;2023-09-12T04:34:41;4.75;;;2.80;;
26858;SDS011;14429;48.346;16.338;2023-09-12T04:37:07;5.97;;;3.03;;
26858;SDS011;14429;48.346;16.338;2023-09-12T04:39:32;3.85;;;2.85;;
26858;SDS011;14429;48.346;16.338;2023-09-12T04:41:58;3.28;;;2.88;;
26858;SDS011;14429;48.346;16.338;2023-09-12T04:44:23;3.03;;;2.70;;
26858;SDS011;14429;48.346;16.338;2023-09-12T04:46:48;3.78;;;2.80;;
26858;SDS011;14429;48.346;16.338;2023-09-12T04:49:14;4.10;;;3.05;;
26858;SDS011;14429;48.346;16.338;2023-09-12T04:51:40;3.13;;;2.63;;
26858;SDS011;14429;48.346;16.338;2023-09-12T04:54:06;4.43;;;2.85;;
26858;SDS011;14429;48.346;16.338;2023-09-12T04:56:31;5.53;;;2.85;;
26858;SDS011;14429;48.346;16.338;2023-09-12T04:58:57;4.85;;;3.15;;
26858;SDS011;14429;48.346;16.338;2023-09-12T05:01:22;5.93;;;4.05;;
26858;SDS011;14429;48.346;16.338;2023-09-12T05:03:47;4.97;;;3.65;;
26858;SDS011;14429;48.346;16.338;2023-09-12T05:06:13;4.65;;;3.25;;
26858;SDS011;14429;48.346;16.338;2023-09-12T05:08:40;3.17;;;2.83;;
26858;SDS011;14429;48.346;16.338;2023-09-12T05:11:05;5.13;;;3.13;;
26858;SDS011;14429;48.346;16.338;2023-09-12T05:13:30;3.67;;;2.95;;
26858;SDS011;14429;48.346;16.338;2023-09-12T05:15:56;3.83;;;2.75;;
26858;SDS011;14429;48.346;16.338;2023-09-12T05:18:21;5.05;;;3.13;;
26858;SDS011;14429;48.346;16.338;2023-09-12T05:20:47;3.45;;;2.47;;
26858;SDS011;14429;48.346;16.338;2023-09-12T05:23:12;5.10;;;3.03;;
26858;SDS011;14429;48.346;16.338;2023-09-12T05:25:39;3.90;;;2.88;;
26858;SDS011;14429;48.346;16.338;2023-09-12T05:28:05;4.82;;;3.20;;
26858;SDS011;14429;48.346;16.338;2023-09-12T05:30:30;4.05;;;2.80;;
26858;SDS011;14429;48.346;16.338;2023-09-12T05:32:56;3.60;;;2.78;;
26858;SDS011;14429;48.346;16.338;2023-09-12T05:35:21;3.72;;;2.97;;
26858;SDS011;14429;48.346;16.338;2023-09-12T05:37:46;4.65;;;3.28;;
26858;SDS011;14429;48.346;16.338;2023-09-12T05:40:12;4.20;;;3.03;;
26858;SDS011;14429;48.346;16.338;2023-09-12T05:42:39;3.70;;;3.20;;
26858;SDS011;14429;48.346;16.338;2023-09-12T05:45:05;5.82;;;2.83;;
26858;SDS011;14429;48.346;16.338;2023-09-12T05:47:31;4.82;;;3.00;;
26858;SDS011;14429;48.346;16.338;2023-09-12T05:49:56;3.40;;;2.90;;
26858;SDS011;14429;48.346;16.338;2023-09-12T05:52:22;11.57;;;6.43;;
26858;SDS011;14429;48.346;16.338;2023-09-12T05:54:47;4.10;;;2.90;;
26858;SDS011;14429;48.346;16.338;2023-09-12T05:57:13;3.22;;;2.75;;
26858;SDS011;14429;48.346;16.338;2023-09-12T05:59:39;3.88;;;2.80;;
26858;SDS011;14429;48.346;16.338;2023-09-12T06:02:05;3.92;;;3.03;;
26858;SDS011;14429;48.346;16.338;2023-09-12T06:04:30;3.92;;;2.47;;
26858;SDS011;14429;48.346;16.338;2023-09-12T06:06:56;3.95;;;2.78;;
26858;SDS011;14429;48.346;16.338;2023-09-12T06:09:21;3.63;;;2.78;;
26858;SDS011;14429;48.346;16.338;2023-09-12T06:11:47;4.63;;;3.30;;
26858;SDS011;14429;48.346;16.338;2023-09-12T06:14:12;4.43;;;2.80;;
26858;SDS011;14429;48.346;16.338;2023-09-12T06:16:39;12.07;;;7.63;;
26858;SDS011;14429;48.346;16.338;2023-09-12T06:19:04;3.80;;;2.65;;
26858;SDS011;14429;48.346;16.338;2023-09-12T06:21:30;8.10;;;4.57;;
26858;SDS011;14429;48.346;16.338;2023-09-12T06:24:08;3.88;;;3.20;;
26858;SDS011;14429;48.346;16.338;2023-09-12T06:26:34;6.82;;;3.60;;
26858;SDS011;14429;48.346;16.338;2023-09-12T06:29:00;4.65;;;3.03;;
26858;SDS011;14429;48.346;16.338;2023-09-12T06:31:25;3.33;;;3.00;;
26858;SDS011;14429;48.346;16.338;2023-09-12T06:33:52;9.95;;;7.38;;
26858;SDS011;14429;48.346;16.338;2023-09-12T06:36:17;3.63;;;2.95;;
26858;SDS011;14429;48.346;16.338;2023-09-12T06:38:43;14.73;;;5.80;;
26858;SDS011;14429;48.346;16.338;2023-09-12T06:41:08;3.97;;;3.10;;
26858;SDS011;14429;48.346;16.338;2023-09-12T06:43:33;4.13;;;2.83;;
26858;SDS011;14429;48.346;16.338;2023-09-12T06:45:59;3.72;;;2.65;;
26858;SDS011;14429;48.346;16.338;2023-09-12T06:48:24;4.88;;;3.60;;
26858;SDS011;14429;48.346;16.338;2023-09-12T06:50:51;4.85;;;2.97;;
26858;SDS011;14429;48.346;16.338;2023-09-12T06:53:17;3.67;;;2.83;;
26858;SDS011;14429;48.346;16.338;2023-09-12T06:55:42;6.78;;;3.20;;
26858;SDS011;14429;48.346;16.338;2023-09-12T06:58:08;5.88;;;3.58;;
26858;SDS011;14429;48.346;16.338;2023-09-12T07:00:33;5.20;;;3.53;;
26858;SDS011;14429;48.346;16.338;2023-09-12T07:02:58;17.58;;;8.35;;
26858;SDS011;14429;48.346;16.338;2023-09-12T07:05:24;13.32;;;9.00;;
26858;SDS011;14429;48.346;16.338;2023-09-12T07:07:51;9.25;;;5.18;;
26858;SDS011;14429;48.346;16.338;2023-09-12T07:10:17;15.35;;;8.70;;
26858;SDS011;14429;48.346;16.338;2023-09-12T07:12:42;12.68;;;8.50;;
26858;SDS011;14429;48.346;16.338;2023-09-12T07:15:08;12.98;;;7.38;;
26858;SDS011;14429;48.346;16.338;2023-09-12T07:17:34;5.20;;;3.72;;
26858;SDS011;14429;48.346;16.338;2023-09-12T07:19:59;5.65;;;4.07;;
26858;SDS011;14429;48.346;16.338;2023-09-12T07:22:25;16.38;;;8.48;;
26858;SDS011;14429;48.346;16.338;2023-09-12T07:24:52;5.60;;;3.80;;
26858;SDS011;14429;48.346;16.338;2023-09-12T07:27:17;6.18;;;4.20;;
26858;SDS011;14429;48.346;16.338;2023-09-12T07:29:43;4.68;;;4.10;;
26858;SDS011;14429;48.346;16.338;2023-09-12T07:32:08;13.90;;;8.00;;
26858;SDS011;14429;48.346;16.338;2023-09-12T07:34:33;11.13;;;7.38;;
26858;SDS011;14429;48.346;16.338;2023-09-12T07:36:59;12.02;;;7.78;;
26858;SDS011;14429;48.346;16.338;2023-09-12T07:39:24;9.68;;;5.75;;
26858;SDS011;14429;48.346;16.338;2023-09-12T07:41:51;6.95;;;4.38;;
26858;SDS011;14429;48.346;16.338;2023-09-12T07:44:16;16.38;;;8.48;;
26858;SDS011;14429;48.346;16.338;2023-09-12T07:46:42;14.52;;;7.38;;
26858;SDS011;14429;48.346;16.338;2023-09-12T07:49:08;6.53;;;4.85;;
26858;SDS011;14429;48.346;16.338;2023-09-12T07:51:33;5.88;;;4.15;;
26858;SDS011;14429;48.346;16.338;2023-09-12T07:53:59;3.75;;;3.30;;
26858;SDS011;14429;48.346;16.338;2023-09-12T07:56:24;5.45;;;4.20;;
26858;SDS011;14429;48.346;16.338;2023-09-12T07:58:51;5.55;;;4.22;;
26858;SDS011;14429;48.346;16.338;2023-09-12T08:01:16;5.78;;;4.90;;
26858;SDS011;14429;48.346;16.338;2023-09-12T08:03:42;18.23;;;8.02;;
26858;SDS011;14429;48.346;16.338;2023-09-12T08:06:08;13.00;;;8.23;;
26858;SDS011;14429;48.346;16.338;2023-09-12T08:08:33;12.43;;;7.07;;
26858;SDS011;14429;48.346;16.338;2023-09-12T08:10:59;12.90;;;8.23;;
26858;SDS011;14429;48.346;16.338;2023-09-12T08:13:25;8.18;;;5.53;;
26858;SDS011;14429;48.346;16.338;2023-09-12T08:15:53;7.68;;;4.68;;
26858;SDS011;14429;48.346;16.338;2023-09-12T08:18:18;6.07;;;4.05;;
26858;SDS011;14429;48.346;16.338;2023-09-12T08:20:44;4.72;;;3.72;;
26858;SDS011;14429;48.346;16.338;2023-09-12T08:23:09;5.47;;;3.55;;
26858;SDS011;14429;48.346;16.338;2023-09-12T08:25:34;6.38;;;4.10;;
26858;SDS011;14429;48.346;16.338;2023-09-12T08:28:00;8.48;;;5.65;;
26858;SDS011;14429;48.346;16.338;2023-09-12T08:30:25;11.88;;;8.10;;
26858;SDS011;14429;48.346;16.338;2023-09-12T08:32:52;6.70;;;4.20;;
26858;SDS011;14429;48.346;16.338;2023-09-12T08:35:18;5.25;;;3.75;;
26858;SDS011;14429;48.346;16.338;2023-09-12T08:37:43;10.32;;;7.53;;
26858;SDS011;14429;48.346;16.338;2023-09-12T08:40:09;14.02;;;7.78;;
26858;SDS011;14429;48.346;16.338;2023-09-12T08:42:38;7.38;;;4.28;;
26858;SDS011;14429;48.346;16.338;2023-09-12T08:45:05;8.18;;;5.25;;
26858;SDS011;14429;48.346;16.338;2023-09-12T08:47:32;13.88;;;7.03;;
26858;SDS011;14429;48.346;16.338;2023-09-12T08:50:02;7.07;;;4.60;;
26858;SDS011;14429;48.346;16.338;2023-09-12T08:52:29;14.20;;;7.32;;
26858;SDS011;14429;48.346;16.338;2023-09-12T08:54:54;11.43;;;7.82;;
26858;SDS011;14429;48.346;16.338;2023-09-12T08:57:20;5.90;;;4.13;;
26858;SDS011;14429;48.346;16.338;2023-09-12T08:59:46;6.28;;;4.15;;
26858;SDS011;14429;48.346;16.338;2023-09-12T09:02:12;6.00;;;3.67;;
26858;SDS011;14429;48.346;16.338;2023-09-12T09:04:39;6.00;;;4.28;;
26858;SDS011;14429;48.346;16.338;2023-09-12T09:07:07;7.10;;;4.75;;
26858;SDS011;14429;48.346;16.338;2023-09-12T09:09:34;7.30;;;4.80;;
26858;SDS011;14429;48.346;16.338;2023-09-12T09:11:59;9.70;;;6.15;;
26858;SDS011;14429;48.346;16.338;2023-09-12T09:14:25;7.45;;;4.78;;
26858;SDS011;14429;48.346;16.338;2023-09-12T09:16:50;6.93;;;4.97;;
26858;SDS011;14429;48.346;16.338;2023-09-12T09:19:16;6.53;;;5.22;;
26858;SDS011;14429;48.346;16.338;2023-09-12T09:21:41;6.25;;;4.40;;
26858;SDS011;14429;48.346;16.338;2023-09-12T09:24:09;6.43;;;4.78;;
26858;SDS011;14429;48.346;16.338;2023-09-12T09:26:42;7.53;;;4.88;;
26858;SDS011;14429;48.346;16.338;2023-09-12T09:29:09;8.45;;;5.07;;
26858;SDS011;14429;48.346;16.338;2023-09-12T09:31:39;11.93;;;7.35;;
26858;SDS011;14429;48.346;16.338;2023-09-12T09:34:09;13.55;;;8.00;;
26858;SDS011;14429;48.346;16.338;2023-09-12T09:36:35;16.15;;;8.52;;
26858;SDS011;14429;48.346;16.338;2023-09-12T09:39:01;6.80;;;4.53;;
26858;SDS011;14429;48.346;16.338;2023-09-12T09:41:29;19.33;;;8.85;;
26858;SDS011;14429;48.346;16.338;2023-09-12T09:43:54;14.88;;;7.05;;
26858;SDS011;14429;48.346;16.338;2023-09-12T09:46:20;9.15;;;6.32;;
26858;SDS011;14429;48.346;16.338;2023-09-12T09:48:48;6.75;;;4.47;;
26858;SDS011;14429;48.346;16.338;2023-09-12T09:51:14;21.65;;;7.53;;
26858;SDS011;14429;48.346;16.338;2023-09-12T09:53:40;6.63;;;4.68;;
26858;SDS011;14429;48.346;16.338;2023-09-12T09:56:08;9.55;;;4.32;;
26858;SDS011;14429;48.346;16.338;2023-09-12T09:58:36;11.05;;;7.70;;
26858;SDS011;14429;48.346;16.338;2023-09-12T10:01:01;14.82;;;7.50;;
26858;SDS011;14429;48.346;16.338;2023-09-12T10:03:28;5.93;;;4.50;;
26858;SDS011;14429;48.346;16.338;2023-09-12T10:05:57;8.15;;;5.07;;
26858;SDS011;14429;48.346;16.338;2023-09-12T10:08:27;4.65;;;3.88;;
26858;SDS011;14429;48.346;16.338;2023-09-12T10:10:53;5.88;;;4.65;;
26858;SDS011;14429;48.346;16.338;2023-09-12T10:13:18;6.25;;;4.13;;
26858;SDS011;14429;48.346;16.338;2023-09-12T10:15:47;6.55;;;4.13;;
26858;SDS011;14429;48.346;16.338;2023-09-12T10:18:17;6.93;;;4.25;;
26858;SDS011;14429;48.346;16.338;2023-09-12T10:20:48;7.28;;;5.43;;
26858;SDS011;14429;48.346;16.338;2023-09-12T10:23:19;14.00;;;7.88;;
26858;SDS011;14429;48.346;16.338;2023-09-12T10:25:48;5.75;;;4.13;;
26858;SDS011;14429;48.346;16.338;2023-09-12T10:28:14;14.05;;;7.28;;
26858;SDS011;14429;48.346;16.338;2023-09-12T10:30:39;9.13;;;6.65;;
26858;SDS011;14429;48.346;16.338;2023-09-12T10:33:07;18.25;;;8.02;;
26858;SDS011;14429;48.346;16.338;2023-09-12T10:35:33;6.32;;;4.90;;
26858;SDS011;14429;48.346;16.338;2023-09-12T10:38:02;4.85;;;4.13;;
26858;SDS011;14429;48.346;16.338;2023-09-12T10:40:28;11.18;;;6.95;;
26858;SDS011;14429;48.346;16.338;2023-09-12T10:42:54;9.55;;;6.45;;
26858;SDS011;14429;48.346;16.338;2023-09-12T10:45:20;11.27;;;6.53;;
26858;SDS011;14429;48.346;16.338;2023-09-12T10:47:47;9.52;;;6.18;;
26858;SDS011;14429;48.346;16.338;2023-09-12T10:50:14;4.95;;;4.32;;
26858;SDS011;14429;48.346;16.338;2023-09-12T10:52:39;5.85;;;3.78;;
26858;SDS011;14429;48.346;16.338;2023-09-12T10:55:06;5.97;;;4.25;;
26858;SDS011;14429;48.346;16.338;2023-09-12T10:57:32;7.00;;;3.90;;
26858;SDS011;14429;48.346;16.338;2023-09-12T11:00:11;6.35;;;4.40;;
26858;SDS011;14429;48.346;16.338;2023-09-12T11:02:37;5.18;;;3.75;;
26858;SDS011;14429;48.346;16.338;2023-09-12T11:05:03;11.32;;;6.05;;
26858;SDS011;14429;48.346;16.338;2023-09-12T11:07:32;13.82;;;7.57;;
26858;SDS011;14429;48.346;16.338;2023-09-12T11:10:20;6.15;;;4.10;;
26858;SDS011;14429;48.346;16.338;2023-09-12T11:12:47;8.48;;;5.53;;
26858;SDS011;14429;48.346;16.338;2023-09-12T11:15:13;12.50;;;7.15;;
26858;SDS011;14429;48.346;16.338;2023-09-12T11:17:39;5.60;;;4.05;;
26858;SDS011;14429;48.346;16.338;2023-09-12T11:20:05;9.80;;;5.00;;
26858;SDS011;14429;48.346;16.338;2023-09-12T11:22:33;5.30;;;3.88;;
26858;SDS011;14429;48.346;16.338;2023-09-12T11:25:01;8.25;;;5.28;;
26858;SDS011;14429;48.346;16.338;2023-09-12T11:27:30;6.97;;;4.40;;
26858;SDS011;14429;48.346;16.338;2023-09-12T11:30:01;9.25;;;6.32;;
26858;SDS011;14429;48.346;16.338;2023-09-12T11:32:30;6.72;;;5.10;;
26858;SDS011;14429;48.346;16.338;2023-09-12T11:34:57;6.18;;;4.22;;
26858;SDS011;14429;48.346;16.338;2023-09-12T11:37:24;5.50;;;4.45;;
26858;SDS011;14429;48.346;16.338;2023-09-12T11:39:52;16.65;;;7.38;;
26858;SDS011;14429;48.346;16.338;2023-09-12T11:42:18;5.82;;;4.28;;
26858;SDS011;14429;48.346;16.338;2023-09-12T11:44:44;5.28;;;4.07;;
26858;SDS011;14429;48.346;16.338;2023-09-12T11:47:09;5.10;;;3.85;;
26858;SDS011;14429;48.346;16.338;2023-09-12T11:49:35;6.82;;;4.70;;
26858;SDS011;14429;48.346;16.338;2023-09-12T11:52:01;5.60;;;4.40;;
26858;SDS011;14429;48.346;16.338;2023-09-12T11:54:26;6.70;;;4.70;;
26858;SDS011;14429;48.346;16.338;2023-09-12T11:56:55;5.63;;;4.22;;
26858;SDS011;14429;48.346;16.338;2023-09-12T11:59:21;6.32;;;4.50;;
26858;SDS011;14429;48.346;16.338;2023-09-12T12:01:46;6.15;;;4.40;;
26858;SDS011;14429;48.346;16.338;2023-09-12T12:04:12;7.47;;;5.13;;
26858;SDS011;14429;48.346;16.338;2023-09-12T12:06:38;5.72;;;4.05;;
26858;SDS011;14429;48.346;16.338;2023-09-12T12:09:03;8.23;;;6.00;;
26858;SDS011;14429;48.346;16.338;2023-09-12T12:11:29;8.07;;;4.53;;
26858;SDS011;14429;48.346;16.338;2023-09-12T12:13:55;5.97;;;4.40;;
26858;SDS011;14429;48.346;16.338;2023-09-12T12:16:21;6.60;;;4.68;;
26858;SDS011;14429;48.346;16.338;2023-09-12T12:18:46;7.28;;;4.85;;
26858;SDS011;14429;48.346;16.338;2023-09-12T12:21:12;7.15;;;4.70;;
26858;SDS011;14429;48.346;16.338;2023-09-12T12:23:37;6.93;;;4.60;;
26858;SDS011;14429;48.346;16.338;2023-09-12T12:26:03;6.13;;;5.00;;
26858;SDS011;14429;48.346;16.338;2023-09-12T12:28:28;5.50;;;4.63;;
26858;SDS011;14429;48.346;16.338;2023-09-12T12:30:57;7.25;;;4.70;;
26858;SDS011;14429;48.346;16.338;2023-09-12T12:33:22;7.25;;;4.65;;
26858;SDS011;14429;48.346;16.338;2023-09-12T12:35:47;6.45;;;4.80;;
26858;SDS011;14429;48.346;16.338;2023-09-12T12:38:13;6.13;;;4.68;;
26858;SDS011;14429;48.346;16.338;2023-09-12T12:40:38;6.80;;;4.80;;
26858;SDS011;14429;48.346;16.338;2023-09-12T12:43:04;6.63;;;4.50;;
26858;SDS011;14429;48.346;16.338;2023-09-12T12:45:29;6.18;;;4.82;;
26858;SDS011;14429;48.346;16.338;2023-09-12T12:47:57;6.22;;;4.93;;
26858;SDS011;14429;48.346;16.338;2023-09-12T12:50:23;7.38;;;4.60;;
26858;SDS011;14429;48.346;16.338;2023-09-12T12:52:49;6.50;;;4.40;;
26858;SDS011;14429;48.346;16.338;2023-09-12T12:55:15;7.05;;;4.70;;
26858;SDS011;14429;48.346;16.338;2023-09-12T12:57:41;6.93;;;5.32;;
26858;SDS011;14429;48.346;16.338;2023-09-12T13:00:08;7.93;;;4.68;;
26858;SDS011;14429;48.346;16.338;2023-09-12T13:02:35;6.78;;;4.88;;
26858;SDS011;14429;48.346;16.338;2023-09-12T13:05:02;6.32;;;4.25;;
26858;SDS011;14429;48.346;16.338;2023-09-12T13:07:28;6.75;;;4.57;;
26858;SDS011;14429;48.346;16.338;2023-09-12T13:09:53;6.47;;;4.65;;
26858;SDS011;14429;48.346;16.338;2023-09-12T13:12:19;7.75;;;4.57;;
26858;SDS011;14429;48.346;16.338;2023-09-12T13:14:44;5.18;;;4.50;;
26858;SDS011;14429;48.346;16.338;2023-09-12T13:17:10;7.28;;;4.82;;
26858;SDS011;14429;48.346;16.338;2023-09-12T13:19:35;6.45;;;4.38;;
26858;SDS011;14429;48.346;16.338;2023-09-12T13:22:02;4.70;;;4.20;;
26858;SDS011;14429;48.346;16.338;2023-09-12T13:24:28;6.50;;;5.15;;
26858;SDS011;14429;48.346;16.338;2023-09-12T13:26:53;6.53;;;4.55;;
26858;SDS011;14429;48.346;16.338;2023-09-12T13:29:18;6.65;;;4.68;;
26858;SDS011;14429;48.346;16.338;2023-09-12T13:31:44;8.25;;;4.88;;
26858;SDS011;14429;48.346;16.338;2023-09-12T13:34:09;7.20;;;4.35;;
26858;SDS011;14429;48.346;16.338;2023-09-12T13:36:35;6.38;;;4.65;;
26858;SDS011;14429;48.346;16.338;2023-09-12T13:39:01;6.75;;;4.82;;
26858;SDS011;14429;48.346;16.338;2023-09-12T13:41:27;5.78;;;4.03;;
26858;SDS011;14429;48.346;16.338;2023-09-12T13:43:52;7.25;;;4.53;;
26858;SDS011;14429;48.346;16.338;2023-09-12T13:46:18;6.32;;;4.57;;
26858;SDS011;14429;48.346;16.338;2023-09-12T13:48:43;6.25;;;4.60;;
26858;SDS011;14429;48.346;16.338;2023-09-12T13:51:08;6.10;;;4.55;;
26858;SDS011;14429;48.346;16.338;2023-09-12T13:53:34;6.85;;;5.03;;
26858;SDS011;14429;48.346;16.338;2023-09-12T13:56:01;12.10;;;5.97;;
26858;SDS011;14429;48.346;16.338;2023-09-12T13:58:26;7.78;;;5.32;;
26858;SDS011;14429;48.346;16.338;2023-09-12T14:00:51;6.75;;;4.80;;
26858;SDS011;14429;48.346;16.338;2023-09-12T14:03:17;8.07;;;5.25;;
26858;SDS011;14429;48.346;16.338;2023-09-12T14:05:42;7.05;;;5.07;;
26858;SDS011;14429;48.346;16.338;2023-09-12T14:08:08;7.32;;;4.85;;
26858;SDS011;14429;48.346;16.338;2023-09-12T14:10:33;7.50;;;4.90;;
26858;SDS011;14429;48.346;16.338;2023-09-12T14:13:00;22.42;;;8.80;;
26858;SDS011;14429;48.346;16.338;2023-09-12T14:15:25;49.53;;;19.20;;
26858;SDS011;14429;48.346;16.338;2023-09-12T14:17:51;37.03;;;15.88;;
26858;SDS011;14429;48.346;16.338;2023-09-12T14:20:16;25.05;;;13.40;;
26858;SDS011;14429;48.346;16.338;2023-09-12T14:22:42;32.00;;;13.73;;
26858;SDS011;14429;48.346;16.338;2023-09-12T14:25:10;28.10;;;12.70;;
26858;SDS011;14429;48.346;16.338;2023-09-12T14:27:36;28.73;;;12.60;;